createdAt,value
2023-01-09T00:00:32.538Z,97106.40
2023-01-09T00:03:54.756Z,97095.80
2023-01-09T00:06:56.566Z,97092.52
2023-01-09T00:09:58.510Z,97091.27
2023-01-09T00:13:00.388Z,97096.96
2023-01-09T00:16:06.691Z,97096.41
2023-01-09T00:19:08.743Z,97096.34
2023-01-09T00:22:10.573Z,97095.55
2023-01-09T00:25:12.424Z,97103.96
2023-01-09T00:28:14.253Z,97095.55
2023-01-09T00:31:17.788Z,97091.82
2023-01-09T00:34:19.698Z,97088.31
2023-01-09T00:37:22.111Z,97080.59
2023-01-09T00:40:24.089Z,97081.92
2023-01-09T00:43:30.823Z,97081.45
2023-01-09T00:46:37.205Z,97087.00
2023-01-09T00:49:40.353Z,97088.47
2023-01-09T00:52:43.378Z,97088.61
2023-01-09T00:55:45.272Z,97089.48
2023-01-09T00:58:47.818Z,97093.70
2023-01-09T01:01:49.853Z,97082.55
2023-01-09T01:05:09.963Z,97073.27
2023-01-09T01:08:14.466Z,97075.68
2023-01-09T01:11:16.576Z,97075.06
2023-01-09T01:14:18.412Z,97073.83
2023-01-09T01:17:20.363Z,97070.00
2023-01-09T01:20:22.201Z,97070.47
2023-01-09T01:23:24.272Z,97060.89
2023-01-09T01:26:26.141Z,97066.10
2023-01-09T01:29:28.175Z,97062.77
2023-01-09T01:32:30.003Z,97057.31
2023-01-09T01:35:31.914Z,97050.85
2023-01-09T01:38:35.041Z,97052.09
2023-01-09T01:41:37.859Z,97056.29
2023-01-09T01:45:00.941Z,97057.06
2023-01-09T01:48:12.288Z,97042.04
2023-01-09T01:51:16.411Z,97043.98
2023-01-09T01:54:25.033Z,97038.21
2023-01-09T01:57:27.089Z,97036.50
2023-01-09T02:00:36.585Z,97030.75
2023-01-09T02:03:40.684Z,97043.36
2023-01-09T02:06:43.899Z,97055.05
2023-01-09T02:09:46.090Z,97054.18
2023-01-09T02:12:47.826Z,97050.05
2023-01-09T02:16:24.055Z,97040.63
2023-01-09T02:20:16.952Z,97034.80
2023-01-09T02:23:37.536Z,97037.27
2023-01-09T02:27:23.900Z,97030.34
2023-01-09T02:30:40.285Z,97028.09
2023-01-09T02:33:50.272Z,97024.27
2023-01-09T02:37:22.559Z,97015.47
2023-01-09T02:40:47.418Z,97019.13
2023-01-09T02:44:16.226Z,97019.66
2023-01-09T02:47:18.008Z,97019.83
2023-01-09T02:50:23.987Z,97008.92
2023-01-09T02:53:50.516Z,97000.59
2023-01-09T02:57:13.819Z,96995.30
2023-01-09T03:00:15.751Z,96990.77
2023-01-09T03:03:37.551Z,96996.86
2023-01-09T03:06:47.109Z,97005.43
2023-01-09T03:09:53.574Z,97004.41
2023-01-09T03:12:59.004Z,97003.33
2023-01-09T03:16:07.353Z,97009.55
2023-01-09T03:19:15.633Z,97007.61
2023-01-09T03:22:18.015Z,96999.98
2023-01-09T03:25:20.649Z,96996.62
2023-01-09T03:28:28.660Z,96984.16
2023-01-09T03:31:30.610Z,96980.59
2023-01-09T03:34:32.522Z,96970.38
2023-01-09T03:37:34.380Z,96966.71
2023-01-09T03:40:36.349Z,96960.27
2023-01-09T03:43:38.429Z,96958.55
2023-01-09T03:46:40.309Z,96943.67
2023-01-09T03:49:42.177Z,96945.16
2023-01-09T03:52:44.029Z,96938.23
2023-01-09T03:55:47.496Z,96937.14
2023-01-09T03:58:49.663Z,96931.67
2023-01-09T04:01:52.330Z,96920.84
2023-01-09T04:04:54.234Z,96915.16
2023-01-09T04:07:56.076Z,96912.44
2023-01-09T04:10:57.929Z,96908.17
2023-01-09T04:13:59.846Z,96909.80
2023-01-09T04:17:01.893Z,96899.21
2023-01-09T04:20:04.136Z,96901.79
2023-01-09T04:23:05.845Z,96895.50
2023-01-09T04:26:07.733Z,96897.52
2023-01-09T04:29:09.572Z,96893.39
2023-01-09T04:32:11.401Z,96891.68
2023-01-09T04:35:13.386Z,96887.56
2023-01-09T04:38:15.277Z,96887.56
2023-01-09T04:41:37.056Z,96886.61
2023-01-09T04:44:38.976Z,96879.93
2023-01-09T04:47:40.967Z,96870.74
2023-01-09T04:50:42.885Z,96870.27
2023-01-09T04:53:44.749Z,96871.67
2023-01-09T04:56:47.043Z,96874.33
2023-01-09T04:59:48.753Z,96865.59
2023-01-09T05:02:50.694Z,96859.70
2023-01-09T05:05:52.645Z,96855.80
2023-01-09T05:08:55.987Z,96853.93
2023-01-09T05:11:57.878Z,96855.48
2023-01-09T05:14:59.746Z,96846.77
2023-01-09T05:18:01.606Z,96842.81
2023-01-09T05:21:03.866Z,96834.10
2023-01-09T05:24:05.725Z,96831.14
2023-01-09T05:27:07.675Z,96825.08
2023-01-09T05:30:10.370Z,96817.52
2023-01-09T05:33:12.293Z,96821.89
2023-01-09T05:36:14.555Z,96816.05
2023-01-09T05:39:16.226Z,96806.63
2023-01-09T05:42:18.060Z,96804.91
2023-01-09T05:45:20.073Z,96796.73
2023-01-09T05:48:22.078Z,96797.67
2023-01-09T05:51:23.916Z,96795.25
2023-01-09T05:54:25.755Z,96795.56
2023-01-09T05:57:28.241Z,96790.80
2023-01-09T06:00:30.705Z,96794.86
2023-01-09T06:03:32.864Z,96789.63
2023-01-09T06:06:34.714Z,96791.11
2023-01-09T06:09:36.606Z,96792.35
2023-01-09T06:12:38.626Z,96791.80
2023-01-09T06:15:40.622Z,96792.19
2023-01-09T06:18:42.554Z,96791.40
2023-01-09T06:21:44.414Z,96790.30
2023-01-09T06:24:46.476Z,96788.35
2023-01-09T06:27:49.468Z,96784.38
2023-01-09T06:30:52.564Z,96788.50
2023-01-09T06:33:54.501Z,96789.44
2023-01-09T06:36:56.356Z,96786.63
2023-01-09T06:39:58.748Z,96783.59
2023-01-09T06:43:00.647Z,96774.79
2023-01-09T06:46:04.941Z,96776.03
2023-01-09T06:49:09.900Z,96781.32
2023-01-09T06:52:11.855Z,96780.85
2023-01-09T06:55:13.762Z,96783.96
2023-01-09T06:58:15.796Z,96783.42
2023-01-09T07:01:17.832Z,96784.67
2023-01-09T07:04:21.464Z,96786.92
2023-01-09T07:07:23.439Z,96787.85
2023-01-09T07:10:25.397Z,96790.96
2023-01-09T07:13:27.421Z,96791.25
2023-01-09T07:16:29.261Z,96792.35
2023-01-09T07:19:31.316Z,96791.46
2023-01-09T07:22:33.327Z,96792.45
2023-01-09T07:25:35.215Z,96793.77
2023-01-09T07:28:37.096Z,96797.04
2023-01-09T07:31:39.158Z,96790.58
2023-01-09T07:34:41.132Z,96791.04
2023-01-09T07:37:43.048Z,96791.42
2023-01-09T07:40:44.961Z,96790.11
2023-01-09T07:43:46.885Z,96788.77
2023-01-09T07:46:48.782Z,96789.95
2023-01-09T07:49:53.255Z,96787.45
2023-01-09T07:52:55.162Z,96789.94
2023-01-09T07:55:57.179Z,96787.13
2023-01-09T07:58:59.505Z,96785.41
2023-01-09T08:02:04.821Z,96783.70
2023-01-09T08:05:12.959Z,96779.11
2023-01-09T08:08:16.135Z,96775.99
2023-01-09T08:11:27.047Z,96773.57
2023-01-09T08:14:29.145Z,96773.18
2023-01-09T08:17:31.777Z,96773.24
2023-01-09T08:20:35.300Z,96768.25
2023-01-09T08:23:44.416Z,96765.95
2023-01-09T08:26:46.348Z,96764.45
2023-01-09T08:29:48.290Z,96769.19
2023-01-09T08:32:58.885Z,96767.45
2023-01-09T08:36:03.412Z,96765.23
2023-01-09T08:39:05.393Z,96772.61
2023-01-09T08:42:28.266Z,96767.38
2023-01-09T08:45:53.198Z,96765.41
2023-01-09T08:48:56.667Z,96763.30
2023-01-09T08:51:59.740Z,96766.02
2023-01-09T08:55:01.651Z,96769.98
2023-01-09T08:58:03.616Z,96769.58
2023-01-09T09:01:06.887Z,96769.71
2023-01-09T09:04:08.797Z,96768.93
2023-01-09T09:07:10.654Z,96769.61
2023-01-09T09:10:17.901Z,96773.25
2023-01-09T09:13:19.874Z,96777.20
2023-01-09T09:16:26.324Z,96783.56
2023-01-09T09:19:28.291Z,96781.83
2023-01-09T09:22:30.457Z,96780.16
2023-01-09T09:25:32.342Z,96769.86
2023-01-09T09:28:37.209Z,96762.96
2023-01-09T09:31:39.237Z,96755.15
2023-01-09T09:34:41.607Z,96749.51
2023-01-09T09:37:53.546Z,96747.60
2023-01-09T09:41:51.889Z,96739.53
2023-01-09T09:44:54.358Z,96733.32
2023-01-09T09:48:39.914Z,96735.46
2023-01-09T09:52:22.397Z,96735.12
2023-01-09T09:55:31.581Z,96733.74
2023-01-09T09:58:48.136Z,96734.73
2023-01-09T10:02:24.735Z,96736.40
2023-01-09T10:10:33.132Z,96736.69
2023-01-09T10:13:55.173Z,96732.69
2023-01-09T10:17:17.767Z,96730.27
2023-01-09T10:20:51.601Z,96728.36
2023-01-09T10:23:54.838Z,96727.56
2023-01-09T10:27:14.997Z,96726.28
2023-01-09T10:30:40.102Z,96724.15
2023-01-09T10:34:02.167Z,96719.73
2023-01-09T10:37:20.172Z,96717.30
2023-01-09T10:40:30.633Z,96718.85
2023-01-09T10:43:47.028Z,96721.09
2023-01-09T10:46:57.566Z,96717.73
2023-01-09T10:50:16.031Z,96712.45
2023-01-09T10:53:28.883Z,96712.52
2023-01-09T10:56:40.138Z,96715.84
2023-01-09T10:59:46.330Z,96713.19
2023-01-09T11:02:50.890Z,96711.77
2023-01-09T11:05:58.388Z,96713.30
2023-01-09T11:09:02.920Z,96708.60
2023-01-09T11:12:26.300Z,96704.05
2023-01-09T11:15:52.959Z,96704.66
2023-01-09T11:19:07.699Z,96708.06
2023-01-09T11:22:20.055Z,96712.38
2023-01-09T11:25:28.395Z,96710.09
2023-01-09T11:28:31.897Z,96707.57
2023-01-09T11:31:35.648Z,96709.02
2023-01-09T11:34:40.247Z,96702.66
2023-01-09T11:37:51.310Z,96698.11
2023-01-09T11:41:03.143Z,96701.04
2023-01-09T11:44:09.292Z,96701.89
2023-01-09T11:47:38.744Z,96707.09
2023-01-09T11:51:00.335Z,96705.05
2023-01-09T11:54:35.167Z,96700.16
2023-01-09T11:57:39.860Z,96698.44
2023-01-09T12:01:00.334Z,96696.85
2023-01-09T12:04:45.593Z,96692.30
2023-01-09T12:08:30.542Z,96691.97
2023-01-09T12:12:18.588Z,96698.53
2023-01-09T12:15:32.462Z,96691.99
2023-01-09T12:19:29.141Z,96688.83
2023-01-09T12:23:23.801Z,96687.64
2023-01-09T12:27:37.669Z,96688.77
2023-01-09T12:39:38.668Z,96675.36
2023-01-09T12:44:01.375Z,96675.53
2023-01-09T12:47:36.384Z,96674.34
2023-01-09T12:51:41.722Z,96674.30
2023-01-09T12:54:55.095Z,96676.33
2023-01-09T12:58:23.964Z,96677.26
2023-01-09T13:01:56.896Z,96672.09
2023-01-09T13:05:16.622Z,96665.82
2023-01-09T13:08:43.619Z,96667.16
2023-01-09T13:11:55.747Z,96664.41
2023-01-09T13:15:07.824Z,96662.13
2023-01-09T13:18:50.038Z,96663.84
2023-01-09T13:21:58.250Z,96668.80
2023-01-09T13:25:35.452Z,96672.60
2023-01-09T13:29:18.365Z,96672.97
2023-01-09T13:33:05.587Z,96685.31
2023-01-09T13:36:38.875Z,96698.83
2023-01-09T13:39:54.565Z,96711.18
2023-01-09T13:43:20.087Z,96719.17
2023-01-09T13:47:00.763Z,96728.86
2023-01-09T13:50:09.711Z,96734.89
2023-01-09T13:53:40.787Z,96735.64
2023-01-09T13:57:45.865Z,96732.98
2023-01-09T14:00:58.772Z,96730.98
2023-01-09T14:04:41.753Z,96729.33
2023-01-09T14:08:02.728Z,96733.83
2023-01-09T14:11:57.559Z,96739.44
2023-01-09T14:15:32.061Z,96752.09
2023-01-09T14:18:52.285Z,96761.65
2023-01-09T14:22:13.327Z,96765.65
2023-01-09T14:25:24.239Z,96782.46
2023-01-09T14:28:32.087Z,96791.58
2023-01-09T14:31:35.569Z,96792.85
2023-01-09T14:34:44.355Z,96794.21
2023-01-09T14:38:01.609Z,96794.63
2023-01-09T14:41:45.809Z,96794.24
2023-01-09T14:45:31.073Z,96802.54
2023-01-09T14:48:50.926Z,96813.77
2023-01-09T14:51:58.351Z,96820.84
2023-01-09T14:55:41.462Z,96819.05
2023-01-09T14:58:48.233Z,96818.53
2023-01-09T15:02:02.266Z,96824.77
2023-01-09T15:05:15.071Z,96822.36
2023-01-09T15:08:22.438Z,96829.02
2023-01-09T15:11:29.757Z,96835.19
2023-01-09T15:15:10.313Z,96832.49
2023-01-09T15:18:24.381Z,96836.33
2023-01-09T15:21:31.276Z,96835.48
2023-01-09T15:24:39.439Z,96842.98
2023-01-09T15:27:51.814Z,96843.92
2023-01-09T15:31:08.234Z,96852.77
2023-01-09T15:34:18.153Z,96858.34
2023-01-09T15:37:30.534Z,96860.30
2023-01-09T15:40:34.982Z,96872.96
2023-01-09T15:43:44.146Z,96881.89
2023-01-09T15:46:50.324Z,96887.42
2023-01-09T15:49:55.966Z,96891.04
2023-01-09T15:58:26.892Z,96898.16
2023-01-09T16:01:47.916Z,96902.02
2023-01-09T16:04:55.065Z,96900.92
2023-01-09T16:07:59.226Z,96896.84
2023-01-09T16:11:10.645Z,96895.44
2023-01-09T16:14:21.046Z,96905.44
2023-01-09T16:17:26.704Z,96910.27
2023-01-09T16:20:30.243Z,96909.11
2023-01-09T16:23:35.764Z,96908.95
2023-01-09T16:26:45.656Z,96918.34
2023-01-09T16:29:58.747Z,96924.82
2023-01-09T16:33:02.558Z,96930.13
2023-01-09T16:36:06.319Z,96933.73
2023-01-09T16:39:27.861Z,96933.44
2023-01-09T16:42:53.650Z,96931.56
2023-01-09T16:45:57.171Z,96926.24
2023-01-09T16:49:00.458Z,96932.13
2023-01-09T16:52:17.562Z,96934.80
2023-01-09T16:55:21.132Z,96938.23
2023-01-09T16:58:30.499Z,96946.05
2023-01-09T17:01:33.904Z,96952.30
2023-01-09T17:04:37.174Z,96957.23
2023-01-09T17:07:40.488Z,96960.06
2023-01-09T17:10:44.477Z,96966.88
2023-01-09T17:13:48.394Z,96973.30
2023-01-09T17:16:52.122Z,96973.69
2023-01-09T17:19:58.069Z,96973.77
2023-01-09T17:23:04.468Z,96973.15
2023-01-09T17:26:36.745Z,96980.98
2023-01-09T17:29:40.405Z,96991.59
2023-01-09T17:32:47.933Z,96991.68
2023-01-09T17:35:51.537Z,96990.20
2023-01-09T17:38:57.882Z,96994.74
2023-01-09T17:42:02.010Z,96994.74
2023-01-09T17:45:10.092Z,96996.31
2023-01-09T17:48:21.855Z,97000.54
2023-01-09T17:51:25.466Z,97003.52
2023-01-09T17:54:28.941Z,97001.80
2023-01-09T17:57:32.965Z,97003.29
2023-01-09T18:00:39.691Z,97003.90
2023-01-09T18:03:44.385Z,97002.81
2023-01-09T18:06:49.647Z,97006.26
2023-01-09T18:09:53.555Z,97013.77
2023-01-09T18:12:57.045Z,97017.92
2023-01-09T18:16:01.389Z,97022.22
2023-01-09T18:19:04.865Z,97029.56
2023-01-09T18:22:10.216Z,97029.73
2023-01-09T18:25:13.495Z,97029.81
2023-01-09T18:28:19.780Z,97024.27
2023-01-09T18:31:24.631Z,97020.98
2023-01-09T18:34:27.882Z,97023.41
2023-01-09T18:37:31.172Z,97024.20
2023-01-09T18:40:34.548Z,97022.42
2023-01-09T18:43:37.820Z,97030.42
2023-01-09T18:46:42.161Z,97036.76
2023-01-09T18:49:45.373Z,97032.85
2023-01-09T18:52:48.599Z,97033.35
2023-01-09T18:55:51.777Z,97038.84
2023-01-09T18:58:57.299Z,97044.16
2023-01-09T19:02:02.198Z,97048.55
2023-01-09T19:05:06.459Z,97047.33
2023-01-09T19:08:09.683Z,97046.31
2023-01-09T19:11:12.933Z,97050.14
2023-01-09T19:14:16.193Z,97064.05
2023-01-09T19:17:19.633Z,97062.59
2023-01-09T19:20:23.411Z,97061.10
2023-01-09T19:23:26.685Z,97063.52
2023-01-09T19:26:31.097Z,97080.48
2023-01-09T19:29:36.616Z,97081.67
2023-01-09T19:32:40.619Z,97088.45
2023-01-09T19:35:48.933Z,97086.75
2023-01-09T19:38:59.904Z,97090.36
2023-01-09T19:42:03.788Z,97087.09
2023-01-09T19:45:08.258Z,97083.58
2023-01-09T19:48:11.675Z,97087.33
2023-01-09T19:51:20.112Z,97082.19
2023-01-09T19:54:23.607Z,97087.34
2023-01-09T19:57:26.866Z,97082.19
2023-01-09T20:00:30.220Z,97085.63
2023-01-09T20:03:33.496Z,97084.85
2023-01-09T20:06:41.727Z,97084.17
2023-01-09T20:09:45.571Z,97089.24
2023-01-09T20:12:49.558Z,97096.29
2023-01-09T20:15:59.079Z,97097.08
2023-01-09T20:19:09.670Z,97100.53
2023-01-09T20:22:13.594Z,97107.66
2023-01-09T20:25:16.933Z,97114.15
2023-01-09T20:28:21.274Z,97124.30
2023-01-09T20:31:31.203Z,97131.89
2023-01-09T20:34:34.600Z,97134.23
2023-01-09T20:40:57.362Z,97129.96
2023-01-09T20:44:12.932Z,97128.95
2023-01-09T20:47:16.181Z,97125.90
2023-01-09T20:50:19.486Z,97126.93
2023-01-09T20:53:22.910Z,97127.41
2023-01-09T20:56:29.123Z,97127.88
2023-01-09T20:59:32.552Z,97126.40
2023-01-09T21:02:36.176Z,97131.65
2023-01-09T21:05:43.537Z,97131.58
2023-01-09T21:09:10.241Z,97128.30
2023-01-09T21:12:44.539Z,97127.83
2023-01-09T21:17:36.664Z,97130.73
2023-01-09T21:20:44.729Z,97135.88
2023-01-09T21:24:07.836Z,97137.47
2023-01-09T21:30:28.513Z,97147.08
2023-01-09T21:33:31.833Z,97149.95
2023-01-09T21:36:35.711Z,97146.93
2023-01-09T21:43:23.755Z,97153.64
2023-01-09T21:46:45.308Z,97157.86
2023-01-09T21:49:48.780Z,97165.45
2023-01-09T21:52:52.003Z,97173.86
2023-01-09T21:55:55.370Z,97178.47
2023-01-09T21:58:58.790Z,97184.72
2023-01-09T22:02:11.873Z,97184.26
2023-01-09T22:05:15.197Z,97189.00
2023-01-09T22:08:18.686Z,97191.11
2023-01-09T22:11:21.934Z,97197.05
2023-01-09T22:14:25.121Z,97206.58
2023-01-09T22:17:29.050Z,97211.72
2023-01-09T22:20:32.263Z,97211.95
2023-01-09T22:23:35.563Z,97214.45
2023-01-09T22:26:38.734Z,97218.83
2023-01-09T22:29:41.961Z,97222.40
2023-01-09T22:32:45.288Z,97222.34
2023-01-09T22:35:48.521Z,97226.08
2023-01-09T22:38:56.442Z,97227.64
2023-01-09T22:41:59.791Z,97230.60
2023-01-09T22:45:03.407Z,97236.39
2023-01-09T22:48:06.671Z,97240.20
2023-01-09T22:51:09.812Z,97243.56
2023-01-09T22:54:13.009Z,97243.25
2023-01-09T22:57:16.239Z,97241.76
2023-01-09T23:00:19.682Z,97241.06
2023-01-09T23:08:16.538Z,97239.51
2023-01-09T23:11:47.505Z,97242.46
2023-01-09T23:14:50.760Z,97239.27
2023-01-09T23:17:53.751Z,97241.69
2023-01-09T23:20:59.880Z,97242.30
2023-01-09T23:24:03.107Z,97243.65
2023-01-09T23:27:07.533Z,97247.47
2023-01-09T23:30:11.116Z,97243.87
2023-01-09T23:33:14.647Z,97246.29
2023-01-09T23:36:17.901Z,97248.02
2023-01-09T23:39:21.456Z,97250.43
2023-01-09T23:42:43.302Z,97248.33
2023-01-09T23:45:46.784Z,97249.03
2023-01-09T23:48:50.037Z,97248.79
2023-01-09T23:51:53.160Z,97251.14
2023-01-09T23:54:56.922Z,97246.45
2023-01-09T23:58:00.533Z,97245.20
